createdAt,value
2017-09-18T01:35:47.210Z,0
2017-09-18T04:24:28.009Z,2
2017-09-18T04:30:28.431Z,5
2017-09-18T04:33:28.705Z,8
2017-09-18T04:35:28.728Z,10
2017-09-18T04:36:58.801Z,13
2017-09-18T04:37:58.858Z,15
2017-09-18T04:38:58.948Z,17
2017-09-18T04:39:58.982Z,20
2017-09-18T04:40:29.015Z,22
2017-09-18T04:41:29.112Z,25
2017-09-18T04:41:59.154Z,28
2017-09-18T04:42:29.161Z,30
2017-09-18T04:42:59.229Z,32
2017-09-18T04:43:29.264Z,35
2017-09-18T04:43:59.298Z,37
2017-09-18T04:44:29.273Z,40
2017-09-18T04:44:59.298Z,43
2017-09-18T04:45:29.426Z,47
2017-09-18T04:45:59.407Z,50
2017-09-18T04:46:29.401Z,55
2017-09-18T04:46:59.497Z,58
2017-09-18T04:47:29.460Z,62
2017-09-18T04:47:59.525Z,67
2017-09-18T04:48:29.554Z,73
2017-09-18T04:48:59.569Z,77
2017-09-18T04:49:29.631Z,83
2017-09-18T04:49:59.676Z,88
2017-09-18T04:50:29.715Z,95
2017-09-18T04:50:59.741Z,100
2017-09-18T04:51:29.793Z,107
2017-09-18T04:51:59.750Z,115
2017-09-18T04:52:29.827Z,122
2017-09-18T04:52:59.827Z,133
2017-09-18T04:53:29.838Z,140
2017-09-18T04:53:59.902Z,148
2017-09-18T04:54:29.905Z,158
2017-09-18T04:54:59.935Z,163
2017-09-18T04:55:29.966Z,170
2017-09-18T04:56:00.055Z,180
2017-09-18T04:56:30.107Z,190
2017-09-18T04:57:00.067Z,202
2017-09-18T04:57:30.154Z,212
2017-09-18T04:58:00.163Z,223
2017-09-18T04:58:30.163Z,235
2017-09-18T04:59:00.211Z,247
2017-09-18T04:59:30.279Z,260
2017-09-18T05:00:01.003Z,277
2017-09-18T05:00:30.661Z,290
2017-09-18T05:01:00.932Z,305
2017-09-18T05:01:30.433Z,320
2017-09-18T05:02:00.580Z,335
2017-09-18T05:02:30.444Z,352
2017-09-18T05:03:00.589Z,373
2017-09-18T05:03:30.528Z,383
2017-09-18T05:04:00.637Z,400
2017-09-18T05:04:30.600Z,428
2017-09-18T05:05:00.648Z,450
2017-09-18T05:05:30.706Z,470
2017-09-18T05:06:00.739Z,480
2017-09-18T05:06:30.755Z,497
2017-09-18T05:07:00.854Z,523
2017-09-18T05:07:30.795Z,542
2017-09-18T05:08:00.790Z,560
2017-09-18T05:08:30.886Z,575
2017-09-18T05:09:00.859Z,600
2017-09-18T05:09:30.916Z,620
2017-09-18T05:10:00.916Z,635
2017-09-18T05:10:30.997Z,655
2017-09-18T05:11:01.053Z,677
2017-09-18T05:11:31.051Z,695
2017-09-18T05:12:01.060Z,715
2017-09-18T05:12:31.130Z,740
2017-09-18T05:13:01.140Z,765
2017-09-18T05:13:31.228Z,787
2017-09-18T05:14:01.267Z,810
2017-09-18T05:14:31.394Z,835
2017-09-18T05:15:01.261Z,857
2017-09-18T05:15:31.333Z,885
2017-09-18T05:16:01.417Z,908
2017-09-18T05:16:31.514Z,938
2017-09-18T05:17:01.378Z,960
2017-09-18T05:17:31.408Z,990
2017-09-18T05:18:01.490Z,1020
2017-09-18T05:18:31.504Z,1048
2017-09-18T05:19:01.576Z,1072
2017-09-18T05:19:31.599Z,1095
2017-09-18T05:20:01.593Z,1120
2017-09-18T05:20:31.656Z,1140
2017-09-18T05:21:01.771Z,1163
2017-09-18T05:21:31.690Z,1187
2017-09-18T05:22:01.692Z,1213
2017-09-18T05:22:31.720Z,1235
2017-09-18T05:23:01.819Z,1260
2017-09-18T05:23:31.811Z,1280
2017-09-18T05:24:01.852Z,1303
2017-09-18T05:24:31.848Z,1330
2017-09-18T05:25:01.885Z,1355
2017-09-18T05:25:31.920Z,1378
2017-09-18T05:26:02.009Z,1403
2017-09-18T05:26:31.985Z,1427
2017-09-18T05:27:02.011Z,1450
2017-09-18T05:27:32.049Z,1477
2017-09-18T05:28:02.142Z,1502
2017-09-18T05:28:32.175Z,1528
2017-09-18T05:29:02.157Z,1552
2017-09-18T05:29:32.225Z,1580
2017-09-18T05:30:02.280Z,1600
2017-09-18T05:30:32.249Z,1622
2017-09-18T05:31:02.416Z,1648
2017-09-18T05:31:32.381Z,1673
2017-09-18T05:32:02.353Z,1693
2017-09-18T05:32:32.410Z,1720
2017-09-18T05:33:02.447Z,1750
2017-09-18T05:33:32.479Z,1770
2017-09-18T05:34:02.482Z,1792
2017-09-18T05:34:32.565Z,1817
2017-09-18T05:35:02.603Z,1840
2017-09-18T05:35:32.635Z,1868
2017-09-18T05:36:02.777Z,1895
2017-09-18T05:36:32.698Z,1925
2017-09-18T05:37:02.691Z,1955
2017-09-18T05:37:32.737Z,1978
2017-09-18T05:38:02.745Z,2003
2017-09-18T05:38:32.801Z,2032
2017-09-18T05:39:02.828Z,2063
2017-09-18T05:39:32.873Z,2092
2017-09-18T05:40:02.898Z,2123
2017-09-18T05:40:32.917Z,2143
2017-09-18T05:41:02.976Z,2165
2017-09-18T05:41:32.985Z,2188
2017-09-18T05:42:03.013Z,2207
2017-09-18T05:42:33.110Z,2230
2017-09-18T05:43:03.072Z,2248
2017-09-18T05:43:33.099Z,2275
2017-09-18T05:44:03.141Z,2297
2017-09-18T05:44:33.236Z,2320
2017-09-18T05:45:03.221Z,2338
2017-09-18T05:45:33.247Z,2360
2017-09-18T05:46:03.287Z,2380
2017-09-18T05:46:33.347Z,2400
2017-09-18T05:47:03.333Z,2415
2017-09-18T05:47:33.444Z,2435
2017-09-18T05:48:03.449Z,2458
2017-09-18T05:48:33.482Z,2617
2017-09-18T05:49:03.541Z,3310
2017-09-18T05:49:33.545Z,4082
2017-09-18T05:50:03.607Z,4727
2017-09-18T05:50:33.692Z,5033
2017-09-18T05:51:03.642Z,5113
2017-09-18T05:51:33.672Z,5145
2017-09-18T05:52:03.754Z,5188
2017-09-18T05:52:33.729Z,5267
2017-09-18T05:53:03.827Z,5317
2017-09-18T05:53:33.832Z,5453
2017-09-18T05:54:03.811Z,5527
2017-09-18T05:54:33.869Z,5647
2017-09-18T05:55:03.900Z,5722
2017-09-18T05:55:33.881Z,5842
2017-09-18T05:56:03.978Z,5932
2017-09-18T05:56:33.976Z,6030
2017-09-18T05:57:04.037Z,6083
2017-09-18T05:57:34.071Z,6140
2017-09-18T05:58:04.109Z,6227
2017-09-18T05:58:34.121Z,6295
2017-09-18T05:59:04.158Z,6323
2017-09-18T05:59:34.211Z,6365
2017-09-18T06:00:04.218Z,6425
2017-09-18T06:00:34.268Z,6527
2017-09-18T06:01:04.264Z,6673
2017-09-18T06:01:34.283Z,6820
2017-09-18T06:02:04.375Z,6890
2017-09-18T06:02:34.367Z,6962
2017-09-18T06:03:04.423Z,7022
2017-09-18T06:03:34.467Z,7075
2017-09-18T06:04:04.478Z,7168
2017-09-18T06:04:34.520Z,7238
2017-09-18T06:05:04.554Z,7380
2017-09-18T06:05:34.642Z,7543
2017-09-18T06:06:04.573Z,7690
2017-09-18T06:06:34.642Z,7823
2017-09-18T06:07:04.628Z,7903
2017-09-18T06:07:34.674Z,7958
2017-09-18T06:08:04.685Z,7995
2017-09-18T06:08:34.738Z,7955
2017-09-18T06:09:04.798Z,8008
2017-09-18T06:09:34.797Z,8130
2017-09-18T06:10:04.847Z,8203
2017-09-18T06:10:34.848Z,8100
2017-09-18T06:11:04.877Z,8092
2017-09-18T06:11:34.982Z,8440
2017-09-18T06:12:04.952Z,8805
2017-09-18T06:12:35.072Z,9313
2017-09-18T06:13:05.007Z,9605
2017-09-18T06:13:35.047Z,9757
2017-09-18T06:14:05.077Z,9848
2017-09-18T06:14:35.155Z,9905
2017-09-18T06:15:05.148Z,10000
2017-09-18T06:15:35.201Z,9977
2017-09-18T06:16:05.286Z,9975
2017-09-18T06:16:35.300Z,10087
2017-09-18T06:17:05.274Z,10102
2017-09-18T06:17:35.303Z,10048
2017-09-18T06:18:05.372Z,9950
2017-09-18T06:18:35.456Z,9770
2017-09-18T06:19:05.482Z,8945
2017-09-18T06:19:35.458Z,7027
2017-09-18T06:20:05.527Z,5920
2017-09-18T06:20:36.051Z,5702
2017-09-18T06:21:05.589Z,5650
2017-09-18T06:21:35.637Z,5647
2017-09-18T06:22:05.611Z,5687
2017-09-18T06:22:35.695Z,5713
2017-09-18T06:23:05.670Z,5825
2017-09-18T06:23:35.777Z,6260
2017-09-18T06:24:05.750Z,6817
2017-09-18T06:24:35.774Z,6913
2017-09-18T06:25:05.795Z,7305
2017-09-18T06:25:35.867Z,8170
2017-09-18T06:26:05.875Z,9000
2017-09-18T06:26:36.135Z,8567
2017-09-18T06:27:05.925Z,7550
2017-09-18T06:27:36.014Z,6560
2017-09-18T06:28:06.042Z,6463
2017-09-18T06:28:36.014Z,9210
2017-09-18T06:29:06.061Z,9473
2017-09-18T06:29:36.131Z,10980
2017-09-18T06:30:06.177Z,11775
2017-09-18T06:30:36.151Z,11260
2017-09-18T06:31:06.204Z,8692
2017-09-18T06:31:36.282Z,7783
2017-09-18T06:32:06.250Z,10483
2017-09-18T06:32:36.338Z,11135
2017-09-18T06:33:06.330Z,11105
2017-09-18T06:33:36.404Z,8473
2017-09-18T06:34:06.465Z,8970
2017-09-18T06:34:36.447Z,8593
2017-09-18T06:35:06.527Z,7185
2017-09-18T06:35:36.663Z,6902
2017-09-18T06:36:06.594Z,8192
2017-09-18T06:36:36.652Z,6665
2017-09-18T06:37:06.600Z,8512
2017-09-18T06:37:36.654Z,7475
2017-09-18T06:38:06.684Z,6298
2017-09-18T06:38:36.754Z,6585
2017-09-18T06:39:06.797Z,6765
2017-09-18T06:39:36.815Z,5998
2017-09-18T06:40:06.904Z,5990
2017-09-18T06:40:36.888Z,6150
2017-09-18T06:41:06.888Z,6788
2017-09-18T06:41:37.053Z,6197
2017-09-18T06:42:06.911Z,5965
2017-09-18T06:42:36.981Z,5897
2017-09-18T06:43:07.001Z,5920
2017-09-18T06:43:37.070Z,6140
2017-09-18T06:44:07.071Z,5833
2017-09-18T06:44:37.095Z,5818
2017-09-18T06:45:07.140Z,5867
2017-09-18T06:45:37.184Z,5940
2017-09-18T06:46:07.205Z,6052
2017-09-18T06:46:37.331Z,6187
2017-09-18T06:47:07.283Z,6403
2017-09-18T06:47:37.329Z,8323
2017-09-18T06:48:07.332Z,10730
2017-09-18T06:48:37.333Z,13165
2017-09-18T06:49:07.393Z,12860
2017-09-18T06:49:37.442Z,13847
2017-09-18T06:50:07.464Z,12907
2017-09-18T06:50:37.508Z,7645
2017-09-18T06:51:07.492Z,8075
2017-09-18T06:51:37.658Z,11762
2017-09-18T06:52:07.552Z,14188
2017-09-18T06:52:37.684Z,14945
2017-09-18T06:53:07.697Z,14970
2017-09-18T06:53:37.696Z,14743
2017-09-18T06:54:07.671Z,13442
2017-09-18T06:54:37.722Z,12502
2017-09-18T06:55:07.739Z,9038
2017-09-18T06:55:37.769Z,7820
2017-09-18T06:56:07.845Z,9557
2017-09-18T06:56:37.875Z,10180
2017-09-18T06:57:07.935Z,10972
2017-09-18T06:57:37.896Z,13592
2017-09-18T06:58:07.916Z,13633
2017-09-18T06:58:37.942Z,9868
2017-09-18T06:59:07.996Z,7868
2017-09-18T06:59:38.016Z,14242
2017-09-18T07:00:08.072Z,14770
2017-09-18T07:00:38.100Z,14855
2017-09-18T07:01:08.104Z,14880
2017-09-18T07:01:38.134Z,14820
2017-09-18T07:02:08.265Z,14915
2017-09-18T07:02:38.198Z,14925
2017-09-18T07:03:08.278Z,14535
2017-09-18T07:03:38.334Z,14798
2017-09-18T07:04:08.349Z,14842
2017-09-18T07:04:38.335Z,14677
2017-09-18T07:05:08.395Z,14915
2017-09-18T07:05:38.531Z,14995
2017-09-18T07:06:08.449Z,15005
2017-09-18T07:06:38.527Z,15000
2017-09-18T07:07:08.634Z,15073
2017-09-18T07:07:38.584Z,15173
2017-09-18T07:08:08.646Z,15245
2017-09-18T07:08:38.692Z,15278
2017-09-18T07:09:08.687Z,15338
2017-09-18T07:09:38.660Z,15298
2017-09-18T07:10:08.752Z,15278
2017-09-18T07:10:38.783Z,15257
2017-09-18T07:11:08.848Z,15043
2017-09-18T07:11:38.805Z,15140
2017-09-18T07:12:08.883Z,15418
2017-09-18T07:12:38.884Z,15832
2017-09-18T07:13:08.898Z,15960
2017-09-18T07:13:38.915Z,15955
2017-09-18T07:14:08.974Z,16007
2017-09-18T07:14:38.985Z,16110
2017-09-18T07:15:09.010Z,16213
2017-09-18T07:15:39.121Z,16237
2017-09-18T07:16:09.095Z,16250
2017-09-18T07:16:39.130Z,16230
2017-09-18T07:17:09.214Z,16387
2017-09-18T07:17:39.192Z,16385
2017-09-18T07:18:09.213Z,16420
2017-09-18T07:18:39.272Z,16508
2017-09-18T07:19:09.272Z,16590
2017-09-18T07:19:39.307Z,16682
2017-09-18T07:20:09.390Z,16768
2017-09-18T07:20:39.485Z,16822
2017-09-18T07:21:09.477Z,16980
2017-09-18T07:21:39.463Z,17062
2017-09-18T07:22:09.619Z,17125
2017-09-18T07:22:39.577Z,17162
2017-09-18T07:23:09.582Z,17278
2017-09-18T07:23:39.608Z,17267
2017-09-18T07:24:09.622Z,17308
2017-09-18T07:24:39.663Z,17385
2017-09-18T07:25:09.719Z,16925
2017-09-18T07:25:39.749Z,14597
2017-09-18T07:26:09.805Z,16895
2017-09-18T07:26:39.832Z,17338
2017-09-18T07:27:09.895Z,17168
2017-09-18T07:27:39.873Z,16877
2017-09-18T07:32:10.245Z,18497
2017-09-18T07:32:40.239Z,18487
2017-09-18T07:33:10.261Z,18395
2017-09-18T07:33:40.364Z,18195
2017-09-18T07:34:10.333Z,17990
2017-09-18T07:34:40.334Z,17942
2017-09-18T07:35:10.392Z,17873
2017-09-18T07:35:40.489Z,17790
2017-09-18T07:36:10.447Z,17983
2017-09-18T07:36:40.430Z,18005
2017-09-18T07:37:10.560Z,18073
2017-09-18T07:37:40.511Z,18083
2017-09-18T07:38:10.578Z,18092
2017-09-18T07:38:40.586Z,18220
2017-09-18T07:39:10.612Z,18323
2017-09-18T07:39:40.645Z,18400
2017-09-18T07:40:10.701Z,18448
2017-09-18T07:40:40.726Z,18450
2017-09-18T07:41:10.745Z,18553
2017-09-18T07:41:40.778Z,18610
2017-09-18T07:42:10.861Z,18718
2017-09-18T07:42:40.844Z,18880
2017-09-18T07:43:10.872Z,19060
2017-09-18T07:43:40.925Z,19195
2017-09-18T07:44:10.931Z,19258
2017-09-18T07:44:40.963Z,19408
2017-09-18T07:45:10.999Z,19520
2017-09-18T07:45:41.043Z,19600
2017-09-18T07:46:11.060Z,19705
2017-09-18T07:46:41.157Z,19697
2017-09-18T07:47:11.184Z,19690
2017-09-18T07:47:41.209Z,19757
2017-09-18T07:48:11.230Z,19845
2017-09-18T07:48:41.220Z,19910
2017-09-18T07:49:11.308Z,20100
2017-09-18T07:49:41.308Z,20342
2017-09-18T07:50:11.383Z,20470
2017-09-18T07:50:41.461Z,20670
2017-09-18T07:51:11.452Z,20842
2017-09-18T07:51:41.495Z,21070
2017-09-18T07:52:11.559Z,21340
2017-09-18T07:52:41.547Z,21510
2017-09-18T07:53:11.571Z,21833
2017-09-18T07:53:41.590Z,22110
2017-09-18T07:54:11.614Z,22453
2017-09-18T07:54:41.629Z,22585
2017-09-18T07:55:11.661Z,22855
2017-09-18T07:55:41.719Z,22963
2017-09-18T07:56:11.729Z,23190
2017-09-18T07:56:41.764Z,23385
2017-09-18T07:57:11.818Z,23380
2017-09-18T07:57:41.822Z,23355
2017-09-18T07:58:11.862Z,23683
2017-09-18T07:58:41.970Z,23747
2017-09-18T07:59:11.930Z,23833
2017-09-18T07:59:41.960Z,24133
2017-09-18T08:00:12.048Z,24017
2017-09-18T08:00:42.030Z,23993
2017-09-18T08:01:12.059Z,23887
2017-09-18T08:01:42.185Z,23927
2017-09-18T08:02:12.119Z,23027
2017-09-18T08:02:42.148Z,18517
2017-09-18T08:03:12.208Z,16412
2017-09-18T08:03:42.208Z,15808
2017-09-18T08:04:12.246Z,14390
2017-09-18T08:04:42.349Z,13980
2017-09-18T08:05:12.360Z,14355
2017-09-18T08:05:42.490Z,14908
2017-09-18T08:06:12.385Z,20380
2017-09-18T08:06:42.443Z,18650
2017-09-18T08:07:12.489Z,15842
2017-09-18T08:07:42.545Z,21595
2017-09-18T08:08:12.574Z,19472
2017-09-18T08:08:42.588Z,18675
2017-09-18T08:09:12.610Z,20290
2017-09-18T08:09:42.670Z,26540
2017-09-18T08:10:12.683Z,24332
2017-09-18T08:10:42.737Z,26065
2017-09-18T08:11:12.786Z,24113
2017-09-18T08:11:42.816Z,25460
2017-09-18T08:12:12.831Z,23065
2017-09-18T08:12:42.843Z,18247
2017-09-18T08:13:12.906Z,17362
2017-09-18T08:13:42.979Z,17025
2017-09-18T08:14:12.979Z,18450
2017-09-18T08:14:43.027Z,17645
2017-09-18T08:15:13.041Z,16570
2017-09-18T08:15:43.075Z,16322
2017-09-18T08:16:13.087Z,15947
2017-09-18T08:16:43.127Z,15655
2017-09-18T08:17:13.159Z,15405
2017-09-18T08:17:43.179Z,15190
2017-09-18T08:18:13.225Z,15067
2017-09-18T08:18:43.283Z,15032
2017-09-18T08:19:13.300Z,15283
2017-09-18T08:19:43.320Z,15677
2017-09-18T08:20:13.347Z,15145
2017-09-18T08:20:43.528Z,15010
2017-09-18T08:21:13.412Z,15005
2017-09-18T08:21:43.456Z,15013
2017-09-18T08:22:13.511Z,15028
2017-09-18T08:22:43.497Z,15020
2017-09-18T08:23:13.549Z,15010
2017-09-18T08:23:43.549Z,15055
2017-09-18T08:24:13.584Z,15058
2017-09-18T08:24:43.664Z,15098
2017-09-18T08:25:13.640Z,15173
2017-09-18T08:25:43.670Z,15197
2017-09-18T08:26:43.791Z,15170
2017-09-18T08:27:13.803Z,15150
2017-09-18T08:27:43.799Z,15095
2017-09-18T08:28:13.834Z,15010
2017-09-18T08:28:43.863Z,14957
2017-09-18T08:29:13.927Z,14975
2017-09-18T08:29:43.934Z,15047
2017-09-18T08:30:13.979Z,15150
2017-09-18T08:30:44.044Z,15328
2017-09-18T08:31:14.031Z,15692
2017-09-18T08:31:44.109Z,15835
2017-09-18T08:32:14.099Z,15878
2017-09-18T08:32:44.187Z,16037
2017-09-18T08:33:14.238Z,16265
2017-09-18T08:33:44.292Z,16568
2017-09-18T08:34:14.302Z,17470
2017-09-18T08:34:44.269Z,17012
2017-09-18T08:35:14.310Z,17240
2017-09-18T08:35:44.431Z,17938
2017-09-18T08:36:14.385Z,19198
2017-09-18T08:36:44.432Z,32035
2017-09-18T08:37:14.454Z,29180
2017-09-18T08:37:44.765Z,18715
2017-09-18T08:38:14.548Z,18403
2017-09-18T08:38:44.546Z,19070
2017-09-18T08:39:14.593Z,21750
2017-09-18T08:39:44.649Z,24965
2017-09-18T08:40:14.694Z,27782
2017-09-18T08:40:44.665Z,23020
2017-09-18T08:41:14.801Z,25352
2017-09-18T08:41:44.819Z,26567
2017-09-18T08:42:14.785Z,26683
2017-09-18T08:42:44.849Z,27692
2017-09-18T08:43:14.934Z,26713
2017-09-18T08:43:44.864Z,32383
2017-09-18T08:44:14.902Z,23527
2017-09-18T08:44:44.932Z,23205
2017-09-18T08:45:14.974Z,26825
2017-09-18T08:45:44.993Z,28600
2017-09-18T08:46:15.108Z,27560
2017-09-18T08:46:45.071Z,18885
2017-09-18T08:47:15.187Z,17878
2017-09-18T08:47:45.207Z,16517
2017-09-18T08:48:15.194Z,16318
2017-09-18T08:48:45.260Z,16232
2017-09-18T08:49:15.230Z,16217
2017-09-18T08:49:45.310Z,16285
2017-09-18T08:50:15.367Z,16480
2017-09-18T08:50:45.317Z,16640
2017-09-18T08:51:15.347Z,16753
2017-09-18T08:51:45.405Z,17145
2017-09-18T08:52:15.447Z,17308
2017-09-18T08:52:45.619Z,17205
2017-09-18T08:53:15.551Z,19348
2017-09-18T08:53:45.525Z,17308
2017-09-18T08:54:15.563Z,17068
2017-09-18T08:54:45.651Z,16808
2017-09-18T08:55:15.676Z,16445
2017-09-18T08:55:45.679Z,16357
2017-09-18T08:56:15.705Z,16322
2017-09-18T08:56:45.749Z,16237
2017-09-18T08:57:15.816Z,15938
2017-09-18T08:57:45.869Z,15707
2017-09-18T08:58:15.834Z,15583
2017-09-18T08:58:45.838Z,15545
2017-09-18T08:59:15.913Z,15563
2017-09-18T08:59:45.897Z,15485
2017-09-18T09:00:16.004Z,15415
2017-09-18T09:00:45.984Z,15377
2017-09-18T09:01:15.995Z,15430
2017-09-18T09:01:46.036Z,15617
2017-09-18T09:02:16.117Z,15840
2017-09-18T09:02:46.378Z,16095
2017-09-18T09:03:16.161Z,16335
2017-09-18T09:03:46.237Z,16415
2017-09-18T09:04:16.241Z,16517
2017-09-18T09:04:46.272Z,16558
2017-09-18T09:05:16.314Z,16645
2017-09-18T09:05:46.417Z,16892
2017-09-18T09:06:16.366Z,17045
2017-09-18T09:06:46.420Z,17425
2017-09-18T09:07:16.425Z,18383
2017-09-18T09:07:46.599Z,17807
2017-09-18T09:08:16.523Z,18472
2017-09-18T09:08:46.602Z,21200
2017-09-18T09:09:16.520Z,20990
2017-09-18T09:09:46.566Z,28195
2017-09-18T09:10:16.579Z,21173
2017-09-18T09:10:46.624Z,18775
2017-09-18T09:11:16.659Z,18403
2017-09-18T09:11:46.672Z,18460
2017-09-18T09:12:16.709Z,19520
2017-09-18T09:12:46.812Z,20773
2017-09-18T09:13:16.784Z,19165
2017-09-18T09:13:46.799Z,18052
2017-09-18T09:14:16.848Z,18313
2017-09-18T09:14:46.879Z,21002
2017-09-18T09:15:16.905Z,32030
2017-09-18T09:15:46.978Z,33473
2017-09-18T09:16:16.970Z,21718
2017-09-18T09:16:46.998Z,25600
2017-09-18T09:17:17.051Z,23050
2017-09-18T09:17:47.112Z,21158
2017-09-18T09:18:17.085Z,31382
2017-09-18T09:18:47.159Z,33190
2017-09-18T09:19:17.235Z,28845
2017-09-18T09:19:47.234Z,23383
2017-09-18T09:20:17.218Z,22037
2017-09-18T09:20:47.267Z,17378
2017-09-18T09:21:17.330Z,23993
2017-09-18T09:21:47.431Z,17530
2017-09-18T09:22:17.418Z,16990
2017-09-18T09:22:47.442Z,17355
2017-09-18T09:23:17.599Z,16810
2017-09-18T09:23:47.474Z,18995
2017-09-18T09:24:17.510Z,19175
2017-09-18T09:24:47.533Z,19470
2017-09-18T09:25:17.569Z,27485
2017-09-18T09:25:47.583Z,27077
2017-09-18T09:26:17.651Z,31103
2017-09-18T09:26:47.678Z,30185
2017-09-18T09:27:17.704Z,20300
2017-09-18T09:27:47.794Z,23665
2017-09-18T09:28:17.825Z,30902
2017-09-18T09:28:47.786Z,22265
2017-09-18T09:29:17.856Z,30103
2017-09-18T09:29:47.841Z,27070
2017-09-18T09:30:17.879Z,24472
2017-09-18T09:30:47.908Z,23525
2017-09-18T09:31:17.934Z,23865
2017-09-18T09:31:47.962Z,19395
2017-09-18T09:32:18.009Z,9795
2017-09-18T09:32:48.037Z,9043
2017-09-18T09:33:18.144Z,8647
2017-09-18T09:33:48.095Z,8570
2017-09-18T09:34:18.127Z,7783
2017-09-18T09:34:48.230Z,7652
2017-09-18T09:35:18.223Z,7498
2017-09-18T09:35:48.289Z,7360
2017-09-18T09:36:18.268Z,7295
2017-09-18T09:36:48.336Z,7352
2017-09-18T09:37:18.382Z,7605
2017-09-18T09:37:48.341Z,8030
2017-09-18T09:38:18.451Z,8627
2017-09-18T09:38:48.422Z,9352
2017-09-18T09:39:18.519Z,10178
2017-09-18T09:39:48.516Z,10678
2017-09-18T09:40:18.578Z,10838
2017-09-18T09:40:48.593Z,11800
2017-09-18T09:41:18.629Z,14670
2017-09-18T09:41:48.617Z,15127
2017-09-18T09:42:18.718Z,16590
2017-09-18T09:42:48.700Z,17012
2017-09-18T09:43:18.831Z,15523
2017-09-18T09:43:48.780Z,16655
2017-09-18T09:44:18.812Z,16837
2017-09-18T09:44:48.850Z,15107
2017-09-18T09:45:18.851Z,13385
2017-09-18T09:45:48.911Z,13153
2017-09-18T09:46:18.974Z,14533
2017-09-18T09:46:48.976Z,10780
2017-09-18T09:47:19.001Z,11713
2017-09-18T09:47:49.075Z,8458
2017-09-18T09:48:19.082Z,8225
2017-09-18T09:48:49.118Z,8368
2017-09-18T09:49:19.209Z,10058
2017-09-18T09:49:49.202Z,11340
2017-09-18T09:50:19.246Z,11040
2017-09-18T09:50:49.192Z,10718
2017-09-18T09:51:19.289Z,12075
2017-09-18T09:51:49.347Z,12362
2017-09-18T09:52:19.339Z,13835
2017-09-18T09:52:49.365Z,14512
2017-09-18T09:53:19.475Z,15840
2017-09-18T09:53:49.452Z,17510
2017-09-18T09:54:19.472Z,14813
2017-09-18T09:54:49.514Z,16217
2017-09-18T09:55:19.488Z,15680
2017-09-18T09:55:49.512Z,15578
2017-09-18T09:56:19.608Z,18112
2017-09-18T09:56:49.592Z,17593
2017-09-18T09:57:19.660Z,15270
2017-09-18T09:57:49.648Z,16905
2017-09-18T09:58:19.765Z,17735
2017-09-18T09:58:49.710Z,17803
2017-09-18T09:59:19.746Z,13667
2017-09-18T09:59:49.777Z,20357
2017-09-18T10:00:19.833Z,19078
2017-09-18T10:00:49.856Z,21977
2017-09-18T10:01:19.872Z,20788
2017-09-18T10:01:49.920Z,18620
2017-09-18T10:02:19.940Z,17060
2017-09-18T10:02:49.974Z,17053
2017-09-18T10:03:20.057Z,17675
2017-09-18T10:03:50.038Z,17790
2017-09-18T10:04:20.117Z,19198
2017-09-18T10:04:50.108Z,19798
2017-09-18T10:05:20.141Z,19255
2017-09-18T10:05:50.220Z,17870
2017-09-18T10:06:20.204Z,15570
2017-09-18T10:06:50.231Z,14453
2017-09-18T10:07:20.357Z,13643
2017-09-18T10:07:50.296Z,12695
2017-09-18T10:08:20.380Z,12638
2017-09-18T10:08:50.392Z,13168
2017-09-18T10:09:20.411Z,13700
2017-09-18T10:09:50.472Z,14740
2017-09-18T10:10:20.466Z,15857
2017-09-18T10:10:50.522Z,16877
2017-09-18T10:11:20.578Z,18695
2017-09-18T10:11:50.616Z,19667
2017-09-18T10:12:20.606Z,19320
2017-09-18T10:12:50.640Z,18458
2017-09-18T10:13:20.869Z,20123
2017-09-18T10:13:50.693Z,23513
2017-09-18T10:14:20.728Z,25805
2017-09-18T10:14:50.773Z,25918
2017-09-18T10:15:20.816Z,26465
2017-09-18T10:15:50.837Z,27685
2017-09-18T10:16:20.854Z,26440
2017-09-18T10:16:50.885Z,27052
2017-09-18T10:17:20.922Z,27008
2017-09-18T10:17:50.953Z,29335
2017-09-18T10:18:21.003Z,31112
2017-09-18T10:18:51.017Z,32130
2017-09-18T10:19:21.094Z,32953
2017-09-18T10:19:51.111Z,34007
2017-09-18T10:20:21.105Z,34030
2017-09-18T10:20:51.201Z,33825
2017-09-18T10:21:21.210Z,33760
2017-09-18T10:21:51.214Z,33497
2017-09-18T10:22:21.259Z,33065
2017-09-18T10:22:51.339Z,33125
2017-09-18T10:23:21.431Z,32905
2017-09-18T10:23:51.331Z,33157
2017-09-18T10:24:21.422Z,33550
2017-09-18T10:24:51.458Z,34070
2017-09-18T10:25:21.485Z,33910
2017-09-18T10:25:51.507Z,34715
2017-09-18T10:26:21.566Z,34157
2017-09-18T10:26:51.557Z,33210
2017-09-18T10:27:21.612Z,34125
2017-09-18T10:27:51.634Z,34117
2017-09-18T10:28:21.763Z,33850
2017-09-18T10:28:51.692Z,33917
2017-09-18T10:29:21.750Z,34280
2017-09-18T10:29:51.774Z,35250
2017-09-18T10:30:21.880Z,35200
2017-09-18T10:30:51.809Z,35190
2017-09-18T10:31:21.867Z,35000
2017-09-18T10:31:51.907Z,34650
2017-09-18T10:32:21.929Z,34915
2017-09-18T10:32:51.951Z,34840
2017-09-18T10:33:22.050Z,34855
2017-09-18T10:33:52.046Z,34733
2017-09-18T10:34:22.000Z,34390
2017-09-18T10:34:52.049Z,34060
2017-09-18T10:35:22.111Z,32735
2017-09-18T10:35:52.167Z,31888
2017-09-18T10:36:22.201Z,32205
2017-09-18T10:36:52.203Z,31930
2017-09-18T10:37:22.249Z,33410
2017-09-18T10:37:52.326Z,34960
2017-09-18T10:38:22.393Z,36317
2017-09-18T10:38:52.362Z,36958
2017-09-18T10:39:22.377Z,37085
2017-09-18T10:39:52.449Z,37285
2017-09-18T10:40:22.428Z,37810
2017-09-18T10:40:52.473Z,38360
2017-09-18T10:41:22.518Z,38672
2017-09-18T10:41:52.566Z,38927
2017-09-18T10:42:22.544Z,39062
2017-09-18T10:42:52.573Z,39810
2017-09-18T10:43:22.678Z,40500
2017-09-18T10:43:52.641Z,32880
2017-09-18T10:44:22.650Z,31127
2017-09-18T10:44:52.776Z,33470
2017-09-18T10:45:22.751Z,39895
2017-09-18T10:45:52.743Z,39970
2017-09-18T10:46:22.779Z,39797
2017-09-18T10:46:52.828Z,34952
2017-09-18T10:47:22.939Z,33995
2017-09-18T10:47:52.972Z,35987
2017-09-18T10:48:22.939Z,27883
2017-09-18T10:48:52.959Z,32293
2017-09-18T10:49:22.974Z,33435
2017-09-18T10:49:53.003Z,22595
2017-09-18T10:50:23.037Z,19605
2017-09-18T10:50:53.119Z,17837
2017-09-18T10:51:23.169Z,17963
2017-09-18T10:51:53.221Z,17725
2017-09-18T10:52:23.210Z,18145
2017-09-18T10:52:53.206Z,18722
2017-09-18T10:53:23.240Z,18630
2017-09-18T10:53:53.255Z,19918
2017-09-18T10:54:23.372Z,22858
2017-09-18T10:54:53.368Z,26638
2017-09-18T10:55:23.396Z,21452
2017-09-18T10:55:53.483Z,21775
2017-09-18T10:56:23.474Z,20458
2017-09-18T10:56:53.495Z,20137
2017-09-18T10:57:23.480Z,20695
2017-09-18T10:57:53.658Z,21345
2017-09-18T10:58:23.606Z,26447
2017-09-18T10:58:53.629Z,21422
2017-09-18T10:59:23.616Z,26687
2017-09-18T10:59:53.641Z,21890
2017-09-18T11:00:23.718Z,22562
2017-09-18T11:00:53.767Z,24197
2017-09-18T11:01:23.733Z,26758
2017-09-18T11:01:53.839Z,24253
2017-09-18T11:02:23.831Z,30045
2017-09-18T11:02:53.904Z,26545
2017-09-18T11:03:23.938Z,38978
2017-09-18T11:03:53.897Z,39757
2017-09-18T11:04:23.930Z,39470
2017-09-18T11:04:53.959Z,38480
2017-09-18T11:05:23.993Z,38647
2017-09-18T11:05:54.111Z,38207
2017-09-18T11:06:24.050Z,36840
2017-09-18T11:06:54.090Z,26827
2017-09-18T11:07:24.113Z,38070
2017-09-18T11:07:54.206Z,34082
2017-09-18T11:08:24.186Z,36853
2017-09-18T11:08:54.563Z,18670
2017-09-18T11:09:24.392Z,16530
2017-09-18T11:09:54.352Z,16552
2017-09-18T11:10:24.332Z,16667
2017-09-18T11:10:54.446Z,22378
2017-09-18T11:11:24.459Z,18062
2017-09-18T11:11:54.465Z,16198
2017-09-18T11:12:24.469Z,15755
2017-09-18T11:12:54.553Z,15445
2017-09-18T11:13:24.583Z,15390
2017-09-18T11:13:54.743Z,15360